UAAH

Balkhash Airport

Airport
ICAO code
UAAH
IATA Code
BXH
Summary
ICAO Region
APAC
ICAO Territory
Location

Balkhash,

Serving
Balkhash
Elevation
1447 ft
Coordinates
46° 53' 36" N , 75° 0' 18" E
Metar
UAAH 250930Z 07006MPS CAVOK M13/M17 Q1035 NOSIG RMK QFE739/0985

Description

Balkhash Airport or Balqash Airport is an airport 6 km northeast the city of Balqash in Kazakhstan.

Runways

Designator Length Width Surface Rops
5/23 2502 40 CON No/No

Airport map

Aerial View

SKYbrary Partners:

Safety knowledge contributed by: